Molino, Florida
Current Conditions -  °F | °C
As of 6:56 PM on Monday 26 Jan 2015 (Local Time) from KNSE Reporting Station
Clear Clear  
Wind Chill: 44°   Ceiling: Unl
Heat Index: 46°   Visibility: 10mi
Dew Point: 35°   Wind: 5mph
Humidity: 66%   Direction: 310°NW
Pressure: 30.03"   Gusts: NA
Location:  30.72°N, 87.31°W
Report Text: KNSE 270056Z 31004KT 10SM CLR 08/02 A3003 RMK AO2 SLP159 T00780017 $
Loading
Personal Weather Stations






























Interactive Weather Map New forecast layout! Learn more

10-Day Weather Forecast

Advertisements
Track Severe Weather on mobile